This is the latest recevied weather packets stored in our database for station/object KF0JHJ. If no packets are shown the sender has not sent any weather packets the latest 1 day(s).
| Time | Temp. | Humidity | Pressure | Rain* | Wind** | Luminosity | Snow |
|---|---|---|---|---|---|---|---|
| 1777987660 | 5.56° C | 53% | 1008.3 hPa | - | 0 m/s | 172 W/m² | - |
| 1777987357 | 5.56° C | 55% | 1008.4 hPa | - | 0.45 m/s, 340° | 64 W/m² | - |
| 1777987055 | 5° C | 55% | 1008.2 hPa | - | 0.89 m/s, 352° | 126 W/m² | - |
| 1777986752 | 4.44° C | 57% | 1008.5 hPa | - | 0.89 m/s, 75° | 105 W/m² | - |
| 1777986450 | 4.44° C | 58% | 1008.1 hPa | - | 0.89 m/s, 8° | 34 W/m² | - |
| 1777986148 | 4.44° C | 60% | 1008 hPa | - | 0 m/s | 31 W/m² | - |
| 1777985844 | 4.44° C | 63% | 1007.9 hPa | - | 0.89 m/s, 4° | 29 W/m² | - |
| 1777985542 | 3.89° C | 65% | 1008.2 hPa | - | 0 m/s | 29 W/m² | - |
| 1777985238 | 3.89° C | 68% | 1008.1 hPa | - | 0.45 m/s, 11° | 28 W/m² | - |
| 1777984935 | 3.89° C | 71% | 1008 hPa | - | 0.89 m/s, 37° | 27 W/m² | - |
| 1777984631 | 3.33° C | 71% | 1007.9 hPa | - | 0 m/s | 26 W/m² | - |
| 1777984328 | 3.33° C | 72% | 1007.8 hPa | - | 0 m/s | 24 W/m² | - |
| 1777984024 | 2.78° C | 74% | 1007.8 hPa | - | 1.34 m/s, 76° | 23 W/m² | - |
| 1777983721 | 2.78° C | 76% | 1007.5 hPa | - | 0.89 m/s, 59° | 22 W/m² | - |
| 1777983418 | 2.22° C | 77% | 1007.5 hPa | - | 0.89 m/s, 29° | 21 W/m² | - |
| 1777983115 | 1.67° C | 81% | 1007.7 hPa | - | 0.89 m/s, 9° | 18 W/m² | - |
| 1777982812 | 1.11° C | 82% | 1007.6 hPa | - | 0 m/s | 17 W/m² | - |
| 1777982508 | 1.11° C | 83% | 1007.3 hPa | - | 0 m/s | 16 W/m² | - |
| 1777982207 | 0.56° C | 84% | 1007.2 hPa | - | 0 m/s | 15 W/m² | - |
| 1777981905 | 0° C | 84% | 1007.3 hPa | - | 0 m/s | 12 W/m² | - |
| 1777981602 | 0° C | 84% | 1007.3 hPa | - | 0 m/s | 12 W/m² | - |
| 1777981298 | 0° C | 85% | 1007.2 hPa | - | 0 m/s | 10 W/m² | - |
| 1777980994 | 0° C | 84% | 1007.1 hPa | - | 0 m/s | 10 W/m² | - |
| 1777980691 | 0° C | 84% | 1006.8 hPa | - | 0 m/s | 7 W/m² | - |
| 1777980387 | 0° C | 84% | 1006.9 hPa | - | 0 m/s | 6 W/m² | - |
* Rain since midnight (hover to see other rain measurements)
** Current wind speed in m/s (hover to see current wind gust speed)